Time;durP1;ratioP1;P1;durP2;ratioP2;P2;SDS_P1;SDS_P2;PMS_P1;PMS_P2;Temp;Humidity;BMP_temperature;BMP_pressure;BME280_temperature;BME280_humidity;BME280_pressure;Samples;Min_cycle;Max_cycle;Signal;HPM_P1;HPM_P2
2022/06/20 00:01:22;;;;;;;3.63;0.57;;;14.20;99.90;;;;;;4981064;28;20092;-71
2022/06/20 00:03:48;;;;;;;2.78;0.70;;;14.20;99.90;;;;;;4979669;28;20074;-72
2022/06/20 00:06:17;;;;;;;0.65;0.47;;;14.20;99.90;;;;;;4980726;28;20114;-72
2022/06/20 00:08:43;;;;;;;2.58;1.58;;;14.20;99.90;;;;;;4981720;28;20047;-72
2022/06/20 00:11:20;;;;;;;7.63;0.90;;;14.20;99.90;;;;;;4979556;28;20058;-72
2022/06/20 00:13:49;;;;;;;1.67;0.93;;;14.20;99.90;;;;;;4960231;28;20063;-72
2022/06/20 00:16:17;;;;;;;1.02;0.82;;;14.20;99.90;;;;;;4968130;28;20360;-72
2022/06/20 00:18:44;;;;;;;1.73;1.30;;;14.20;99.90;;;;;;4981861;28;20030;-71
2022/06/20 00:21:13;;;;;;;1.55;1.00;;;14.20;99.90;;;;;;4996346;28;20493;-72
2022/06/20 00:23:39;;;;;;;1.67;0.80;;;14.20;99.90;;;;;;4980458;28;20034;-71
2022/06/20 00:26:05;;;;;;;1.52;0.70;;;14.10;99.90;;;;;;4981598;28;20054;-72
2022/06/20 00:28:31;;;;;;;1.10;0.82;;;14.20;99.90;;;;;;4983591;28;20072;-72
2022/06/20 00:30:57;;;;;;;2.33;1.27;;;14.10;99.90;;;;;;4983177;28;20074;-71
2022/06/20 00:33:22;;;;;;;4.55;0.90;;;14.10;99.90;;;;;;4984658;28;20139;-71
2022/06/20 00:35:48;;;;;;;1.30;1.20;;;14.10;99.90;;;;;;4984607;28;20066;-72
2022/06/20 00:38:19;;;;;;;0.93;0.60;;;14.10;99.90;;;;;;4985197;28;20061;-73
2022/06/20 00:40:54;;;;;;;0.77;0.70;;;14.20;99.90;;;;;;4983197;28;20046;-71
2022/06/20 00:43:36;;;;;;;3.47;1.02;;;14.20;99.90;;;;;;4983807;28;20088;-72
2022/06/20 00:46:08;;;;;;;3.72;1.52;;;14.10;99.90;;;;;;4982930;28;20046;-71
2022/06/20 00:48:41;;;;;;;1.17;0.85;;;14.10;99.90;;;;;;4984611;28;20512;-72
2022/06/20 00:51:19;;;;;;;2.15;1.20;;;14.10;99.90;;;;;;4984592;28;20081;-72
2022/06/20 00:53:53;;;;;;;2.53;0.82;;;14.10;99.90;;;;;;4984569;28;20148;-72
2022/06/20 00:56:28;;;;;;;2.08;0.95;;;14.10;99.90;;;;;;4984442;28;20177;-72
2022/06/20 00:59:01;;;;;;;2.28;1.10;;;14.10;99.90;;;;;;4982857;28;20050;-72
2022/06/20 01:01:37;;;;;;;1.90;1.02;;;14.10;99.90;;;;;;4983329;28;20042;-72
2022/06/20 01:04:44;;;;;;;0.88;0.82;;;14.10;99.90;;;;;;4983878;28;20093;-71
2022/06/20 01:07:18;;;;;;;1.10;0.65;;;14.10;99.90;;;;;;4983376;28;20058;-72
2022/06/20 01:09:48;;;;;;;2.05;0.63;;;14.10;99.90;;;;;;4984516;28;20038;-73
2022/06/20 01:12:18;;;;;;;2.22;1.13;;;14.10;99.90;;;;;;4974452;28;20482;-74
2022/06/20 01:14:44;;;;;;;2.38;1.15;;;14.10;99.90;;;;;;4964962;28;20133;-74
2022/06/20 01:17:36;;;;;;;1.45;0.77;;;14.00;99.90;;;;;;4978477;28;20129;-72
2022/06/20 01:20:07;;;;;;;1.38;1.05;;;14.00;99.90;;;;;;4984121;28;20751;-72
2022/06/20 01:22:38;;;;;;;3.03;1.07;;;14.00;99.90;;;;;;4984153;28;20053;-72
2022/06/20 01:25:24;;;;;;;1.02;0.93;;;14.00;99.90;;;;;;4983830;28;20290;-72
2022/06/20 01:27:51;;;;;;;0.65;0.55;;;13.90;99.90;;;;;;4988122;28;20632;-72
2022/06/20 01:30:20;;;;;;;1.88;1.33;;;14.00;99.90;;;;;;4983969;28;20043;-71
2022/06/20 01:32:46;;;;;;;1.38;1.20;;;13.90;99.90;;;;;;4983729;28;20538;-72
2022/06/20 01:37:23;;;;;;;3.15;1.10;;;13.90;99.90;;;;;;4984139;28;20042;-72
2022/06/20 01:38:04;;;;;;;3.17;2.00;;;13.90;99.90;;;;;;4982995;28;20058;-72
2022/06/20 01:40:30;;;;;;;1.17;0.82;;;13.80;99.90;;;;;;4984186;28;20161;-71
2022/06/20 01:42:56;;;;;;;4.68;1.63;;;13.80;99.90;;;;;;4982926;28;20145;-72
2022/06/20 01:48:12;;;;;;;3.28;1.60;;;13.80;99.90;;;;;;4982222;28;20085;-72
2022/06/20 01:50:40;;;;;;;2.08;1.17;;;13.70;99.90;;;;;;4983365;28;20090;-72
2022/06/20 01:53:08;;;;;;;1.48;1.05;;;13.70;99.90;;;;;;4983557;28;20053;-72
2022/06/20 01:55:35;;;;;;;2.88;1.90;;;13.70;99.90;;;;;;4983154;28;20277;-72
2022/06/20 01:58:09;;;;;;;2.67;1.92;;;13.70;99.90;;;;;;4982581;28;20054;-71
2022/06/20 02:00:35;;;;;;;2.03;1.65;;;13.60;99.90;;;;;;4983465;28;20050;-72
2022/06/20 02:03:07;;;;;;;6.18;1.40;;;13.60;99.90;;;;;;4982892;28;20092;-72
2022/06/20 02:05:33;;;;;;;3.63;1.52;;;13.60;99.90;;;;;;4982830;28;20503;-72
2022/06/20 02:08:03;;;;;;;6.53;1.10;;;13.50;99.90;;;;;;4981561;28;20133;-71
2022/06/20 02:10:35;;;;;;;2.25;1.35;;;13.50;99.90;;;;;;4983133;28;20120;-72
2022/06/20 02:13:01;;;;;;;;;;;13.50;99.90;;;;;;4981008;28;20053;-72
2022/06/20 02:15:30;;;;;;;2.30;1.05;;;13.50;99.90;;;;;;4983062;28;19976;-71
2022/06/20 02:17:55;;;;;;;2.40;1.15;;;13.50;99.90;;;;;;4982799;28;20065;-72
2022/06/20 02:20:27;;;;;;;1.60;1.23;;;13.50;99.90;;;;;;4983051;28;20069;-72
2022/06/20 02:22:53;;;;;;;2.65;1.63;;;13.50;99.90;;;;;;4981293;28;20050;-71
2022/06/20 02:25:24;;;;;;;5.65;1.90;;;13.50;99.90;;;;;;4981330;28;20042;-72
2022/06/20 02:27:58;;;;;;;4.13;1.60;;;13.60;99.90;;;;;;4980391;28;20056;-72
2022/06/20 02:30:24;;;;;;;2.83;1.27;;;13.50;99.90;;;;;;4982942;28;20410;-72
2022/06/20 02:32:57;;;;;;;2.00;1.88;;;13.50;99.90;;;;;;4982408;28;20236;-72
2022/06/20 02:35:22;;;;;;;3.05;1.92;;;13.50;99.90;;;;;;4983115;28;20092;-72
2022/06/20 02:37:49;;;;;;;3.20;1.67;;;13.60;99.90;;;;;;4982163;28;20042;-72
2022/06/20 02:40:19;;;;;;;1.60;1.45;;;13.60;99.90;;;;;;4981378;28;20082;-72
2022/06/20 02:43:11;;;;;;;5.00;1.88;;;13.50;99.90;;;;;;4981358;28;20089;-72
2022/06/20 02:45:38;;;;;;;1.75;1.27;;;13.50;99.90;;;;;;4981072;28;20100;-72
2022/06/20 02:48:07;;;;;;;1.63;1.02;;;13.40;99.90;;;;;;4980257;28;20056;-71
2022/06/20 02:50:37;;;;;;;4.95;2.20;;;13.40;99.90;;;;;;4982837;28;20093;-72
2022/06/20 02:53:18;;;;;;;1.35;1.25;;;13.40;99.90;;;;;;4980878;28;20112;-72
2022/06/20 02:55:44;;;;;;;0.93;0.82;;;13.40;99.90;;;;;;4981255;28;20054;-75
2022/06/20 02:58:19;;;;;;;1.83;1.50;;;13.40;99.90;;;;;;4981904;28;20042;-72
2022/06/20 03:00:53;;;;;;;2.40;1.52;;;13.30;99.90;;;;;;4981199;28;20054;-72
2022/06/20 03:03:31;;;;;;;3.00;1.65;;;13.30;99.90;;;;;;4982234;28;20121;-72
2022/06/20 03:05:57;;;;;;;4.47;1.63;;;13.20;99.90;;;;;;4981878;28;20054;-71
2022/06/20 03:08:23;;;;;;;4.47;1.85;;;13.20;99.90;;;;;;4982211;28;20530;-72
2022/06/20 03:10:52;;;;;;;4.20;1.90;;;13.10;99.90;;;;;;4981370;28;20034;-72
2022/06/20 03:13:21;;;;;;;4.68;1.25;;;13.10;99.90;;;;;;4971902;28;20570;-72
2022/06/20 03:15:49;;;;;;;4.13;1.45;;;13.00;99.90;;;;;;4981657;28;20039;-72
2022/06/20 03:18:17;;;;;;;1.88;1.27;;;13.00;99.90;;;;;;4981793;28;20049;-72
2022/06/20 03:20:44;;;;;;;2.88;1.60;;;13.00;99.90;;;;;;4982374;28;20046;-71
2022/06/20 03:23:30;;;;;;;8.50;1.52;;;12.90;99.90;;;;;;4982347;28;20056;-72
2022/06/20 03:25:59;;;;;;;6.38;1.98;;;12.90;99.90;;;;;;4981710;28;20053;-72
2022/06/20 03:28:27;;;;;;;3.33;1.88;;;12.90;99.90;;;;;;4979584;28;20501;-72
2022/06/20 03:30:53;;;;;;;2.92;1.27;;;12.90;99.90;;;;;;4981403;28;20034;-72
2022/06/20 03:33:21;;;;;;;2.85;1.88;;;12.90;99.90;;;;;;4981603;28;20049;-71
2022/06/20 03:36:15;;;;;;;2.97;1.45;;;12.80;99.90;;;;;;4980229;28;20050;-72
2022/06/20 03:38:44;;;;;;;1.85;1.75;;;12.80;99.90;;;;;;4977920;28;20064;-72
2022/06/20 03:41:13;;;;;;;1.80;1.42;;;12.80;99.90;;;;;;4981090;28;20121;-71
2022/06/20 03:43:41;;;;;;;1.95;1.40;;;12.70;99.90;;;;;;4980660;28;20485;-71
2022/06/20 03:46:15;;;;;;;4.57;1.42;;;12.70;99.90;;;;;;4980192;28;20073;-71
2022/06/20 03:49:13;;;;;;;3.20;1.75;;;12.70;99.90;;;;;;4981632;28;20042;-72
2022/06/20 03:51:44;;;;;;;6.45;2.45;;;12.70;99.90;;;;;;4979903;28;20061;-71
2022/06/20 03:54:45;;;;;;;1.85;1.70;;;12.70;99.90;;;;;;4981086;28;20057;-72
2022/06/20 03:57:39;;;;;;;5.28;2.42;;;12.70;99.90;;;;;;4979782;28;20042;-71
2022/06/20 04:00:11;;;;;;;2.63;1.77;;;12.80;99.90;;;;;;4980636;28;20054;-71
2022/06/20 04:02:49;;;;;;;2.65;2.13;;;12.70;99.90;;;;;;4980877;28;20089;-71
2022/06/20 04:05:36;;;;;;;2.88;2.35;;;12.80;99.90;;;;;;4965092;28;20110;-72
2022/06/20 04:08:08;;;;;;;2.72;2.17;;;12.80;99.90;;;;;;4963919;28;20051;-71
2022/06/20 04:13:30;;;;;;;2.47;1.85;;;12.80;99.90;;;;;;4965074;28;20054;-72
2022/06/20 04:16:07;;;;;;;7.25;2.40;;;12.90;99.90;;;;;;4980436;28;20057;-72
2022/06/20 04:19:08;;;;;;;5.22;1.85;;;12.90;99.90;;;;;;4965732;28;20130;-72
2022/06/20 04:21:47;;;;;;;6.57;1.90;;;12.90;99.90;;;;;;4967182;28;20124;-72
2022/06/20 04:24:21;;;;;;;4.63;2.50;;;13.00;99.90;;;;;;4984059;28;20054;-71
2022/06/20 04:27:10;;;;;;;2.38;2.17;;;13.00;99.90;;;;;;4983744;28;20042;-72
2022/06/20 04:29:42;;;;;;;5.43;2.17;;;13.00;99.90;;;;;;4984947;28;20073;-72
2022/06/20 04:32:44;;;;;;;3.92;2.97;;;13.10;99.90;;;;;;4983636;28;20136;-71
2022/06/20 04:35:31;;;;;;;1.67;1.45;;;13.10;99.90;;;;;;4973127;28;20142;-72
2022/06/20 04:38:12;;;;;;;2.22;2.03;;;13.10;99.90;;;;;;4983129;28;20042;-71
2022/06/20 04:40:51;;;;;;;8.68;2.60;;;13.20;99.90;;;;;;4983669;28;20579;-71
2022/06/20 04:43:25;;;;;;;2.55;2.42;;;13.20;99.90;;;;;;4983949;28;20465;-72
2022/06/20 04:46:12;;;;;;;3.17;2.17;;;13.20;99.90;;;;;;4983255;28;20043;-72
2022/06/20 04:48:37;;;;;;;6.75;2.83;;;13.30;99.90;;;;;;4984717;28;20042;-72
2022/06/20 04:51:09;;;;;;;3.13;2.55;;;13.30;99.90;;;;;;4983479;28;20046;-72
2022/06/20 04:53:39;;;;;;;2.63;2.10;;;13.30;99.90;;;;;;4984135;28;20327;-71
2022/06/20 04:56:06;;;;;;;2.67;2.33;;;13.30;99.90;;;;;;4982758;28;20039;-74
2022/06/20 04:58:42;;;;;;;10.10;2.78;;;13.30;99.90;;;;;;4984459;28;20042;-74
2022/06/20 05:01:08;;;;;;;9.27;2.92;;;13.30;99.90;;;;;;4983568;28;20120;-73
2022/06/20 05:03:58;;;;;;;6.18;3.15;;;13.40;99.90;;;;;;4984387;28;20065;-73
2022/06/20 05:06:27;;;;;;;6.97;2.70;;;13.30;99.90;;;;;;4966478;28;20058;-73
2022/06/20 05:08:59;;;;;;;3.50;1.90;;;13.40;99.90;;;;;;4983687;28;20038;-73
2022/06/20 05:11:31;;;;;;;4.22;2.22;;;13.40;99.90;;;;;;4980133;28;20047;-73
2022/06/20 05:14:02;;;;;;;6.13;2.97;;;13.40;99.90;;;;;;4963349;28;20050;-73
2022/06/20 05:16:33;;;;;;;3.55;2.47;;;13.50;99.90;;;;;;4977679;28;20054;-73
2022/06/20 05:19:05;;;;;;;4.63;2.78;;;13.50;99.90;;;;;;4981915;28;20047;-73
2022/06/20 05:21:37;;;;;;;3.65;2.30;;;13.50;99.90;;;;;;4984491;28;20206;-73
2022/06/20 05:24:10;;;;;;;6.00;2.38;;;13.60;99.90;;;;;;4992636;28;20080;-73
2022/06/20 05:26:41;;;;;;;6.10;2.25;;;13.70;99.90;;;;;;4984454;28;20097;-73
2022/06/20 05:29:14;;;;;;;3.33;1.70;;;13.70;99.90;;;;;;4983774;28;20124;-73
2022/06/20 05:31:49;;;;;;;2.42;2.20;;;13.80;99.90;;;;;;4984468;28;20050;-73
2022/06/20 05:34:38;;;;;;;2.25;1.90;;;13.80;99.90;;;;;;4985921;28;20105;-73
2022/06/20 05:37:03;;;;;;;7.28;2.05;;;13.90;99.90;;;;;;4995470;28;20419;-74
2022/06/20 05:39:38;;;;;;;3.78;1.95;;;13.90;99.90;;;;;;4984130;28;20137;-72
2022/06/20 05:42:05;;;;;;;4.05;1.70;;;13.90;99.90;;;;;;4981183;28;20113;-73
2022/06/20 05:44:31;;;;;;;3.47;2.22;;;13.90;99.90;;;;;;4983155;28;20026;-73
2022/06/20 05:47:03;;;;;;;11.20;2.63;;;14.00;99.90;;;;;;4982823;28;20047;-73
2022/06/20 05:49:33;;;;;;;3.90;2.40;;;14.00;99.90;;;;;;4980808;28;20440;-72
2022/06/20 05:52:01;;;;;;;3.38;1.67;;;14.10;99.90;;;;;;4989250;28;20080;-73
2022/06/20 05:54:32;;;;;;;2.08;1.77;;;14.10;99.90;;;;;;4997999;28;20049;-72
2022/06/20 05:57:02;;;;;;;2.45;1.52;;;14.20;99.90;;;;;;4981621;28;20089;-73
2022/06/20 05:59:27;;;;;;;3.25;2.40;;;14.30;99.90;;;;;;4978140;28;20100;-73
2022/06/20 06:02:22;;;;;;;3.17;1.63;;;14.30;99.90;;;;;;4969493;28;20046;-72
2022/06/20 06:05:01;;;;;;;3.92;1.77;;;14.30;99.90;;;;;;4988036;28;20054;-73
2022/06/20 06:07:33;;;;;;;9.95;2.45;;;14.30;99.90;;;;;;4981867;28;20042;-73
2022/06/20 06:10:05;;;;;;;5.00;2.42;;;14.30;99.90;;;;;;4980976;28;20038;-73
2022/06/20 06:12:42;;;;;;;2.67;1.92;;;14.30;99.90;;;;;;4981573;28;20172;-73
2022/06/20 06:15:28;;;;;;;6.82;2.25;;;14.30;99.90;;;;;;4981063;28;20042;-73
2022/06/20 06:17:59;;;;;;;2.65;1.73;;;14.30;99.90;;;;;;4980779;28;20082;-73
2022/06/20 06:20:27;;;;;;;4.85;2.67;;;14.40;99.90;;;;;;4980811;28;20042;-73
2022/06/20 06:22:59;;;;;;;8.05;1.83;;;14.40;99.90;;;;;;4987515;28;20034;-73
2022/06/20 06:25:35;;;;;;;6.43;2.25;;;14.50;99.90;;;;;;4980758;28;20121;-72
2022/06/20 06:28:02;;;;;;;2.53;2.15;;;14.60;99.90;;;;;;4979335;28;20042;-72
2022/06/20 06:30:38;;;;;;;3.78;1.90;;;14.60;99.90;;;;;;4981662;28;20043;-72
2022/06/20 06:33:32;;;;;;;5.82;1.45;;;14.70;99.90;;;;;;4981372;28;20329;-73
2022/06/20 06:36:06;;;;;;;1.33;1.23;;;14.80;99.90;;;;;;4980967;28;20420;-72
2022/06/20 06:38:40;;;;;;;3.17;1.67;;;14.80;99.90;;;;;;4983318;28;20042;-73
2022/06/20 06:41:14;;;;;;;4.72;1.92;;;14.90;99.90;;;;;;5000213;28;20049;-72
2022/06/20 06:43:44;;;;;;;2.95;1.60;;;14.90;99.90;;;;;;5001382;28;20044;-73
2022/06/20 06:46:27;;;;;;;2.92;1.98;;;14.90;99.90;;;;;;4999882;28;20050;-73
2022/06/20 06:48:59;;;;;;;1.83;1.50;;;14.90;99.90;;;;;;5000467;28;20511;-72
2022/06/20 06:51:34;;;;;;;1.65;1.13;;;14.90;99.90;;;;;;4980742;28;20035;-73
2022/06/20 06:54:09;;;;;;;4.88;2.33;;;14.90;99.90;;;;;;4981240;28;20046;-72
2022/06/20 06:56:41;;;;;;;5.68;2.03;;;14.90;99.90;;;;;;4978575;28;20038;-73
2022/06/20 06:59:22;;;;;;;1.42;1.25;;;15.00;99.90;;;;;;4979796;28;20046;-73
2022/06/20 07:01:51;;;;;;;2.80;1.58;;;14.90;99.90;;;;;;4976778;28;20376;-73
2022/06/20 07:04:22;;;;;;;0.85;0.85;;;14.90;99.90;;;;;;4980943;28;20575;-73
2022/06/20 07:06:53;;;;;;;2.00;1.17;;;15.00;99.90;;;;;;4979168;28;20042;-73
2022/06/20 07:09:40;;;;;;;3.20;1.55;;;14.90;99.90;;;;;;4969521;28;20050;-73
2022/06/20 07:12:16;;;;;;;1.90;1.00;;;14.90;99.90;;;;;;4978258;28;20126;-72
2022/06/20 07:14:44;;;;;;;1.30;1.30;;;15.00;99.90;;;;;;4996648;28;20452;-73
2022/06/20 07:17:32;;;;;;;10.40;1.38;;;15.00;99.90;;;;;;4980928;28;20481;-73
2022/06/20 07:19:58;;;;;;;3.95;1.55;;;15.10;99.90;;;;;;4980491;28;20030;-73
2022/06/20 07:22:25;;;;;;;1.23;1.10;;;15.10;99.90;;;;;;4980749;28;20118;-73
2022/06/20 07:24:52;;;;;;;3.05;1.20;;;15.10;99.90;;;;;;4979429;28;20042;-73
2022/06/20 07:27:40;;;;;;;3.30;1.42;;;15.20;99.90;;;;;;4977877;28;20100;-73
2022/06/20 07:30:36;;;;;;;8.27;1.73;;;15.20;99.90;;;;;;4979164;28;20404;-73
2022/06/20 07:33:34;;;;;;;5.20;1.38;;;15.20;99.90;;;;;;4977600;28;20117;-72
2022/06/20 07:36:05;;;;;;;1.05;0.95;;;15.20;99.90;;;;;;4978503;28;20061;-73
2022/06/20 07:38:36;;;;;;;1.93;1.57;;;15.20;99.90;;;;;;4979076;28;20092;-73
2022/06/20 07:41:09;;;;;;;1.30;1.20;;;15.30;99.90;;;;;;4978888;28;20667;-73
2022/06/20 07:43:58;;;;;;;3.88;1.38;;;15.20;99.90;;;;;;4979691;28;20057;-73
2022/06/20 07:46:32;;;;;;;2.85;1.50;;;15.30;99.90;;;;;;4980077;28;20077;-73
2022/06/20 07:49:03;;;;;;;1.60;1.02;;;15.30;99.90;;;;;;4993596;28;20106;-74
2022/06/20 07:51:35;;;;;;;1.65;1.25;;;15.40;99.90;;;;;;4982714;28;20052;-74
2022/06/20 07:54:32;;;;;;;3.55;1.85;;;15.40;99.90;;;;;;4978942;28;20522;-75
2022/06/20 07:57:22;;;;;;;0.77;0.75;;;15.50;99.90;;;;;;4979111;28;20050;-74
2022/06/20 08:00:14;;;;;;;1.52;1.00;;;15.50;99.90;;;;;;4980000;28;20046;-75
2022/06/20 08:02:48;;;;;;;2.75;1.30;;;15.50;99.90;;;;;;4993884;28;20088;-74
2022/06/20 08:05:22;;;;;;;3.70;1.60;;;15.50;99.90;;;;;;4989399;28;20061;-77
2022/06/20 08:07:58;;;;;;;2.00;1.58;;;15.50;99.90;;;;;;4982982;28;20117;-75
2022/06/20 08:10:29;;;;;;;2.78;1.85;;;15.60;99.90;;;;;;4981464;28;20059;-74
2022/06/20 08:13:04;;;;;;;2.17;1.17;;;15.60;99.90;;;;;;4981420;28;20077;-74
2022/06/20 08:16:02;;;;;;;6.75;1.60;;;15.70;99.90;;;;;;4988524;28;20061;-74
2022/06/20 08:18:29;;;;;;;3.55;1.25;;;15.70;99.90;;;;;;4969459;28;20061;-74
2022/06/20 08:21:16;;;;;;;3.88;1.08;;;15.70;99.90;;;;;;5000328;28;20074;-74
2022/06/20 08:23:55;;;;;;;6.93;1.40;;;15.80;99.90;;;;;;4997254;28;20081;-74
2022/06/20 08:26:58;;;;;;;6.00;2.65;;;15.80;99.90;;;;;;4999329;28;20065;-73
2022/06/20 08:29:47;;;;;;;1.90;1.73;;;15.80;99.90;;;;;;4998671;28;20393;-73
2022/06/20 08:32:18;;;;;;;9.55;1.92;;;15.90;99.90;;;;;;4999043;28;20100;-72
2022/06/20 08:35:07;;;;;;;0.98;0.90;;;15.90;99.90;;;;;;5000507;28;20492;-74
2022/06/20 08:37:38;;;;;;;2.22;1.58;;;15.90;99.90;;;;;;4983366;28;20039;-73
2022/06/20 08:40:28;;;;;;;4.95;1.58;;;15.80;99.90;;;;;;4978890;28;20089;-73
2022/06/20 08:43:18;;;;;;;8.55;1.45;;;15.80;99.90;;;;;;4989545;28;20042;-74
2022/06/20 08:46:24;;;;;;;4.03;1.95;;;15.90;99.90;;;;;;4994349;28;20069;-75
2022/06/20 08:49:15;;;;;;;3.00;1.15;;;16.00;99.90;;;;;;4981372;28;20047;-74
2022/06/20 08:52:19;;;;;;;1.42;0.88;;;16.00;99.90;;;;;;4983103;28;20389;-72
2022/06/20 08:55:16;;;;;;;1.05;1.05;;;16.00;99.90;;;;;;4981939;28;20752;-74
2022/06/20 08:58:16;;;;;;;0.82;0.82;;;15.90;99.90;;;;;;4980811;28;20042;-73
2022/06/20 09:00:57;;;;;;;2.28;1.10;;;15.90;99.90;;;;;;4981309;28;20560;-73
2022/06/20 09:03:43;;;;;;;1.00;0.90;;;16.00;99.90;;;;;;4984200;28;20050;-73
2022/06/20 09:06:30;;;;;;;2.40;1.17;;;16.00;99.90;;;;;;4982197;28;20096;-73
2022/06/20 09:09:14;;;;;;;1.38;1.27;;;16.10;99.90;;;;;;4979311;28;20402;-73
2022/06/20 09:12:09;;;;;;;2.33;1.02;;;16.10;99.90;;;;;;4983140;28;20031;-73
2022/06/20 09:14:56;;;;;;;1.00;0.95;;;16.10;99.90;;;;;;4982306;28;20042;-73
2022/06/20 09:17:33;;;;;;;0.70;0.70;;;16.10;99.90;;;;;;4980593;28;20077;-73
2022/06/20 09:20:26;;;;;;;2.17;1.30;;;16.10;99.90;;;;;;4982192;28;20089;-73
2022/06/20 09:23:29;;;;;;;4.38;1.65;;;16.10;99.90;;;;;;4983482;28;20078;-74
2022/06/20 09:26:01;;;;;;;1.48;1.33;;;16.20;99.90;;;;;;4979776;28;20035;-73
2022/06/20 09:28:47;;;;;;;2.00;1.90;;;16.40;99.90;;;;;;4982388;28;20727;-73
2022/06/20 09:31:42;;;;;;;2.85;1.83;;;16.50;99.90;;;;;;4982474;28;20235;-73
2022/06/20 09:34:37;;;;;;;1.50;1.30;;;16.50;99.90;;;;;;4981773;28;20104;-73
2022/06/20 09:37:20;;;;;;;1.40;1.30;;;16.50;99.90;;;;;;5000519;28;20049;-73
2022/06/20 09:39:51;;;;;;;2.00;1.45;;;16.50;99.90;;;;;;4982211;28;20050;-75
2022/06/20 09:42:42;;;;;;;2.63;1.25;;;16.50;99.90;;;;;;4984347;28;20317;-73
2022/06/20 09:45:33;;;;;;;1.10;1.00;;;16.40;99.90;;;;;;4987390;28;20042;-75
2022/06/20 09:48:16;;;;;;;4.45;2.05;;;16.50;99.90;;;;;;4979988;28;20054;-74
2022/06/20 09:50:48;;;;;;;7.32;1.88;;;16.50;99.90;;;;;;4984044;28;20038;-74
2022/06/20 09:53:19;;;;;;;2.00;1.52;;;16.60;99.90;;;;;;4977426;28;20072;-77
2022/06/20 09:55:58;;;;;;;2.72;1.25;;;16.50;99.90;;;;;;4979733;28;20133;-75
2022/06/20 09:58:47;;;;;;;3.28;2.08;;;16.50;99.90;;;;;;4986282;28;20104;-75
2022/06/20 10:01:37;;;;;;;3.08;1.60;;;16.50;99.90;;;;;;4983782;28;20050;-75
2022/06/20 10:04:28;;;;;;;7.50;1.83;;;16.60;99.90;;;;;;4982687;28;20073;-74
2022/06/20 10:07:05;;;;;;;1.20;1.10;;;16.60;99.90;;;;;;4982581;28;20057;-74
2022/06/20 10:10:04;;;;;;;3.40;1.40;;;16.70;99.90;;;;;;4990780;28;20105;-74
2022/06/20 10:12:43;;;;;;;2.20;1.70;;;16.60;99.90;;;;;;4999256;28;20049;-73
2022/06/20 10:15:37;;;;;;;2.17;1.45;;;16.60;99.90;;;;;;5003305;28;20042;-74
2022/06/20 10:18:07;;;;;;;1.75;1.05;;;16.70;99.90;;;;;;5001822;28;20077;-73
2022/06/20 10:20:33;;;;;;;1.83;1.63;;;16.70;99.90;;;;;;4985512;28;20548;-73
2022/06/20 10:23:27;;;;;;;3.67;1.45;;;16.80;99.90;;;;;;4982715;28;20042;-73
2022/06/20 10:26:32;;;;;;;1.63;1.33;;;16.90;99.90;;;;;;4981196;28;20054;-73
2022/06/20 10:29:14;;;;;;;3.83;1.58;;;16.90;99.90;;;;;;4982187;28;20057;-73
2022/06/20 10:31:48;;;;;;;1.52;1.42;;;16.90;99.90;;;;;;4993147;28;20080;-73
2022/06/20 10:34:28;;;;;;;2.20;1.05;;;16.80;99.90;;;;;;5000945;28;20046;-75
2022/06/20 10:37:07;;;;;;;2.15;1.67;;;16.70;99.90;;;;;;5001937;28;20133;-73
2022/06/20 10:39:52;;;;;;;1.70;0.93;;;16.70;99.90;;;;;;5000686;28;20042;-73
2022/06/20 10:42:33;;;;;;;1.95;1.17;;;16.80;99.90;;;;;;4993410;28;20082;-73
2022/06/20 10:45:30;;;;;;;3.90;2.15;;;16.80;99.90;;;;;;4982596;28;20045;-73
2022/06/20 10:48:10;;;;;;;2.03;0.98;;;16.80;99.90;;;;;;5001333;28;20072;-73
2022/06/20 10:50:43;;;;;;;1.23;0.90;;;16.80;99.90;;;;;;4996158;28;20042;-74
2022/06/20 10:53:21;;;;;;;4.65;1.35;;;16.80;99.90;;;;;;4980333;28;20046;-75
2022/06/20 10:56:05;;;;;;;1.52;0.70;;;16.80;99.90;;;;;;4963855;28;20157;-74
2022/06/20 10:58:51;;;;;;;0.85;0.85;;;16.80;99.90;;;;;;4998253;28;20038;-75
2022/06/20 11:01:31;;;;;;;0.93;0.88;;;16.80;99.90;;;;;;4981576;28;20050;-80
2022/06/20 11:04:15;;;;;;;1.80;1.42;;;16.90;99.90;;;;;;4981648;28;20058;-73
2022/06/20 11:06:49;;;;;;;2.80;1.60;;;16.80;99.90;;;;;;4991725;28;20116;-74
2022/06/20 11:09:18;;;;;;;2.30;1.48;;;16.70;99.90;;;;;;4999363;28;20085;-74
2022/06/20 11:12:10;;;;;;;4.40;1.00;;;16.70;99.90;;;;;;4995946;28;20041;-75
2022/06/20 11:14:36;;;;;;;;;;;16.70;99.90;;;;;;4988344;28;20034;-77
2022/06/20 11:17:34;;;;;;;5.43;0.88;;;16.60;99.90;;;;;;4988658;28;19922;-73
2022/06/20 11:20:02;;;;;;;1.95;0.88;;;16.60;99.90;;;;;;4947843;28;20080;-74
2022/06/20 11:22:38;;;;;;;0.63;0.63;;;16.50;99.90;;;;;;4980985;28;20195;-76
2022/06/20 11:25:35;;;;;;;1.08;1.05;;;16.50;99.90;;;;;;4977263;28;20061;-73
2022/06/20 11:28:23;;;;;;;1.00;0.93;;;16.50;99.90;;;;;;4979391;28;20050;-75
2022/06/20 11:31:05;;;;;;;3.40;1.45;;;16.60;99.90;;;;;;4976842;28;20057;-74
2022/06/20 11:34:06;;;;;;;1.92;1.40;;;16.60;99.90;;;;;;4996302;28;20086;-73
2022/06/20 11:37:01;;;;;;;1.42;0.90;;;16.60;99.90;;;;;;4977012;28;20047;-72
2022/06/20 11:39:43;;;;;;;1.73;1.33;;;16.60;99.90;;;;;;4938997;28;20050;-73
2022/06/20 11:42:39;;;;;;;1.10;1.00;;;16.60;99.90;;;;;;4990796;28;20057;-76
2022/06/20 11:45:26;;;;;;;2.85;1.58;;;16.60;99.90;;;;;;4992092;28;20088;-73
2022/06/20 11:48:18;;;;;;;2.00;1.30;;;16.60;99.90;;;;;;4981428;28;20509;-73
2022/06/20 11:50:48;;;;;;;1.13;0.98;;;16.70;99.90;;;;;;4978950;28;20489;-76
2022/06/20 11:53:40;;;;;;;1.35;1.23;;;16.60;99.90;;;;;;4979402;28;20054;-75
2022/06/20 11:56:09;;;;;;;3.57;0.83;;;16.70;99.90;;;;;;4993459;28;20448;-73
2022/06/20 11:58:53;;;;;;;9.75;1.60;;;16.80;99.90;;;;;;4979121;28;20285;-71
2022/06/20 12:01:23;;;;;;;2.65;1.27;;;16.90;99.90;;;;;;4976803;28;20447;-73
2022/06/20 12:03:57;;;;;;;2.15;1.10;;;16.90;99.90;;;;;;4980336;28;20042;-73
2022/06/20 12:06:44;;;;;;;3.70;1.15;;;16.90;99.90;;;;;;4977511;28;20065;-73
2022/06/20 12:09:22;;;;;;;1.35;1.23;;;16.90;99.90;;;;;;4979144;28;20046;-73
2022/06/20 12:12:14;;;;;;;1.13;0.80;;;16.90;99.90;;;;;;4977088;28;20567;-73
2022/06/20 12:14:56;;;;;;;0.60;0.60;;;16.90;99.90;;;;;;4979743;28;20122;-73
2022/06/20 12:17:39;;;;;;;1.70;1.00;;;16.90;99.90;;;;;;4979762;28;20050;-74
2022/06/20 12:25:47;;;;;;;1.02;0.98;;;16.90;99.90;;;;;;4987400;28;20192;-72
2022/06/20 12:28:25;;;;;;;4.80;1.40;;;16.90;99.90;;;;;;4985433;28;20093;-75
2022/06/20 12:31:17;;;;;;;3.40;1.17;;;16.90;99.90;;;;;;4989771;28;20129;-77
2022/06/20 12:34:19;;;;;;;1.15;1.15;;;16.90;99.90;;;;;;4976873;28;20129;-77
2022/06/20 12:36:54;;;;;;;0.93;0.93;;;16.90;99.90;;;;;;4944420;28;20062;-74
2022/06/20 12:39:25;;;;;;;1.45;1.13;;;16.90;99.90;;;;;;4981361;28;20065;-73
2022/06/20 12:42:21;;;;;;;1.13;1.05;;;16.90;99.90;;;;;;4983667;28;20046;-74
2022/06/20 12:45:06;;;;;;;1.92;1.20;;;17.00;99.90;;;;;;4980975;28;20069;-72
2022/06/20 12:47:32;;;;;;;1.10;1.05;;;17.00;99.90;;;;;;4983138;28;20046;-73
2022/06/20 12:50:15;;;;;;;1.83;0.82;;;17.00;99.90;;;;;;4981949;28;20042;-74
2022/06/20 12:53:17;;;;;;;1.55;1.45;;;17.00;99.90;;;;;;4979695;28;20050;-73
2022/06/20 12:55:54;;;;;;;0.88;0.88;;;16.90;99.90;;;;;;4984634;28;20034;-72
2022/06/20 12:58:49;;;;;;;1.98;1.52;;;16.90;99.90;;;;;;4978867;28;20073;-73
2022/06/20 13:01:35;;;;;;;1.83;1.23;;;16.90;99.90;;;;;;4984231;28;20046;-73
2022/06/20 13:04:28;;;;;;;4.40;1.58;;;16.90;99.90;;;;;;4983624;28;20129;-73
2022/06/20 13:07:15;;;;;;;2.25;1.20;;;16.90;99.90;;;;;;4980010;28;20235;-73
2022/06/20 13:09:58;;;;;;;1.38;1.20;;;16.90;99.90;;;;;;4980931;28;20052;-75
2022/06/20 13:12:39;;;;;;;1.13;1.10;;;17.00;99.90;;;;;;4981355;28;20125;-74
2022/06/20 13:15:26;;;;;;;5.60;2.00;;;17.10;99.90;;;;;;4982474;28;20166;-73
2022/06/20 13:18:20;;;;;;;2.10;1.33;;;17.10;99.90;;;;;;4980883;28;20047;-74
2022/06/20 13:21:04;;;;;;;1.40;1.30;;;17.20;99.90;;;;;;4979388;28;20038;-74
2022/06/20 13:23:51;;;;;;;1.75;0.90;;;17.20;99.90;;;;;;4981548;28;20048;-73
2022/06/20 13:26:45;;;;;;;1.48;1.02;;;17.30;99.90;;;;;;4979236;28;20218;-73
2022/06/20 13:29:49;;;;;;;5.82;1.75;;;17.40;99.90;;;;;;4979825;28;20097;-73
2022/06/20 13:32:15;;;;;;;1.60;1.38;;;17.40;99.90;;;;;;4979775;28;20035;-75
2022/06/20 13:35:14;;;;;;;5.28;1.40;;;17.40;99.90;;;;;;4982343;28;20104;-73
2022/06/20 13:38:00;;;;;;;1.20;1.10;;;17.40;99.90;;;;;;4980005;28;20031;-73
2022/06/20 13:40:26;;;;;;;1.20;1.10;;;17.40;99.90;;;;;;4981708;28;20051;-73
2022/06/20 13:43:25;;;;;;;0.82;0.82;;;17.30;99.90;;;;;;4981551;28;20042;-74
2022/06/20 13:45:58;;;;;;;2.70;1.38;;;17.40;99.90;;;;;;4982103;28;20034;-74
2022/06/20 13:48:49;;;;;;;2.95;1.42;;;17.30;99.90;;;;;;4982178;28;20042;-73
2022/06/20 13:51:35;;;;;;;1.02;1.02;;;17.30;99.90;;;;;;4977092;28;20038;-74
2022/06/20 13:54:33;;;;;;;3.05;0.73;;;17.10;99.90;;;;;;4981797;28;20054;-74
2022/06/20 13:57:24;;;;;;;1.25;1.15;;;17.00;99.90;;;;;;4982138;28;20045;-74